Latest Weather Observations for Troughton Island

IDW60801

Issued at 3:32 pm WST Friday 30 January 2015 (issued every 30 minutes, with the page automatically refreshed every 10 minutes)

About weather observations | Map of weather stations | Latest weather observations for WA | Other Formats
Station Details ID: 001007 Name: TROUGHTON ISLAND Lat: -13.75 Lon: 126.15 Height: 6.0 m
Data from the previous 72 hours. | See also: Recent months at Troughton Island
Date/Time
WST
Temp
°C
App
Temp
°C
Dew
Point
Rel
Hum
%
Delta-T
°C
Wind Press
QNH
hPa
Press
MSL
hPa
Rain
since 9 am
mm
Dir
 
Spd
km/h
Gust
km/h
Spd
kts
Gust
kts
30/03:30pm 30.6 34.2 29.1 92 1.1 W 30 35 16 19 1006.5 - 0.0
30/03:00pm 30.8 34.3 29.0 90 1.3 W 30 37 16 20 1006.6 1006.5 0.0
30/02:30pm 31.3 35.2 30.0 93 1.0 W 32 35 17 19 1006.7 - 0.0
30/02:00pm 31.7 36.3 29.9 90 1.3 W 28 35 15 19 1006.5 - 0.0
30/01:30pm 31.2 35.2 29.6 91 1.2 W 30 35 16 19 1006.7 - 0.0
30/01:00pm 31.7 37.4 29.9 90 1.3 W 22 28 12 15 1007.1 - 0.0
30/12:30pm 32.2 38.6 30.2 89 1.5 W 20 26 11 14 1007.6 - 0.0
30/12:00pm 32.0 38.8 30.7 93 1.0 W 20 24 11 13 1008.2 1008.1 0.0
30/11:30am 31.7 38.6 30.2 92 1.1 W 17 20 9 11 1008.6 - 0.0
30/11:00am 31.6 38.5 30.1 92 1.1 WSW 17 20 9 11 1008.9 - 0.0
30/10:30am 31.3 37.9 29.8 92 1.1 W 17 20 9 11 1009.2 - 0.0
30/10:00am 31.1 37.9 30.0 94 0.8 W 17 22 9 12 1009.3 - 0.0
30/09:30am 30.9 37.2 29.4 92 1.1 W 17 20 9 11 1009.6 - 0.0
30/09:00am 30.7 36.6 29.4 93 1.0 W 19 22 10 12 1009.7 1009.6 0.0
30/08:30am 30.5 37.2 29.4 94 0.8 W 15 19 8 10 1009.3 - 0.0
30/08:00am 29.8 35.9 29.1 96 0.5 W 17 20 9 11 1009.2 - 0.0
30/07:30am 29.3 36.0 28.9 98 0.3 W 13 17 7 9 1008.9 - 0.0
30/07:00am 28.7 35.6 28.7 100 0.0 W 11 13 6 7 1008.5 - 0.0
30/06:30am 27.9 - 28.2 - - W 9 11 5 6 1008.3 - 0.0
30/06:00am 26.9 - 27.4 - - W 6 7 3 4 1008.0 1007.9 0.0
30/05:30am 26.7 33.1 26.7 100 0.0 SW 6 9 3 5 1007.6 - 0.0
30/05:00am 27.1 33.2 27.1 100 0.0 S 9 11 5 6 1007.2 - 0.0
30/04:30am 27.2 - 27.7 - - S 13 15 7 8 1006.9 - 0.0
30/04:00am 27.3 - 27.8 - - S 17 19 9 10 1006.7 - 0.0
30/03:30am 27.4 - 27.7 - - S 15 20 8 11 1006.6 - 0.0
30/03:00am 27.2 - 27.7 - - SSE 15 19 8 10 1006.4 1006.3 0.0
30/02:30am 27.1 - 27.9 - - SSE 15 19 8 10 1006.4 - 0.0
30/02:00am 27.1 - 27.9 - - S 17 20 9 11 1006.6 - 0.0
30/01:30am 27.3 - 28.1 - - S 19 22 10 12 1006.9 - 0.0
30/01:00am 27.2 32.6 27.2 100 0.0 S 13 20 7 11 1007.4 - 0.0
30/12:30am 27.7 32.1 27.4 98 0.2 SW 19 24 10 13 1007.7 - 0.0
30/12:00am 28.4 - 29.6 - - W 24 30 13 16 1008.1 1008.0 0.0
 
Date/Time
WST
Temp
°C
App
Temp
°C
Dew
Point
Rel
Hum
%
Delta-T
°C
Wind Press
QNH
hPa
Press
MSL
hPa
Rain
since 9 am
mm
Dir
 
Spd
km/h
Gust
km/h
Spd
kts
Gust
kts
29/11:30pm 28.5 - 29.7 - - W 24 30 13 16 1008.4 - 0.0
29/11:00pm 28.4 - 29.4 - - WNW 24 28 13 15 1008.7 - 0.0
29/10:30pm 28.5 - 29.2 - - WNW 26 30 14 16 1008.9 - 0.0
29/10:00pm 28.6 - 29.1 - - WNW 26 28 14 15 1008.9 - 0.0
29/09:30pm 28.6 - 28.9 - - WNW 22 28 12 15 1008.7 - 0.0
29/09:00pm 28.6 33.7 28.6 100 0.0 WNW 20 24 11 13 1008.9 1008.8 0.0
29/08:30pm 28.5 33.7 28.5 100 0.0 NW 19 22 10 12 1008.7 - 0.0
29/08:00pm 28.6 33.8 28.4 99 0.1 NW 19 20 10 11 1008.4 - 0.0
29/07:30pm 28.5 34.0 28.3 99 0.1 NW 17 20 9 11 1007.8 - 0.0
29/07:00pm 28.5 33.7 28.0 97 0.4 NW 17 20 9 11 1007.4 - 0.0
29/06:30pm 28.5 34.1 28.0 97 0.4 NW 15 19 8 10 1006.7 - 0.0
29/06:00pm 28.8 34.7 27.9 95 0.7 WNW 13 17 7 9 1006.2 1006.1 0.0
29/05:30pm 29.3 35.3 28.0 93 0.9 NW 13 17 7 9 1005.7 - 0.0
29/05:00pm 30.2 37.0 28.6 91 1.2 WNW 11 15 6 8 1005.2 - 0.0
29/04:30pm 30.6 37.2 28.8 90 1.3 NW 13 17 7 9 1005.1 - 0.0
29/04:00pm 30.5 37.2 28.9 91 1.2 NNW 13 17 7 9 1004.7 - 0.0
29/03:30pm 30.8 38.2 28.8 89 1.5 NW 9 15 5 8 1004.7 - 0.0
29/03:00pm 30.8 37.8 28.8 89 1.5 NW 11 15 6 8 1004.7 1004.6 0.0
29/02:30pm 30.7 37.1 28.5 88 1.6 NW 13 17 7 9 1005.3 - 0.0
29/02:00pm 30.7 37.0 27.9 85 2.0 WNW 11 13 6 7 1005.4 - 0.0
29/01:30pm 30.9 37.6 27.9 84 2.2 WSW 9 9 5 5 1005.6 - 0.0
29/01:00pm 31.0 37.6 27.8 83 2.3 SW 9 11 5 6 1006.1 - 0.0
29/12:30pm 31.2 38.6 28.8 87 1.8 ESE 9 11 5 6 1006.3 - 0.0
29/12:00pm 30.5 37.9 28.3 88 1.6 ESE 7 13 4 7 1006.9 1006.8 0.0
29/11:30am 30.3 36.9 28.3 89 1.5 SE 11 15 6 8 1007.4 - 0.0
29/11:00am 30.1 36.7 28.3 90 1.3 SE 11 17 6 9 1007.7 - 0.0
29/10:30am 30.7 37.4 28.9 90 1.3 ESE 13 19 7 10 1008.3 - 0.0
29/10:00am 30.1 34.5 27.3 85 2.0 SSE 19 24 10 13 1008.5 - 0.0
29/09:30am 30.2 34.2 26.8 82 2.4 SE 19 24 10 13 1008.5 - 0.0
29/09:00am 29.3 33.2 27.5 90 1.3 SE 22 26 12 14 1008.8 1008.7 0.0
29/08:30am 28.1 32.3 27.8 98 0.2 ESE 22 28 12 15 1009.0 - 0.0
29/08:00am 28.2 32.2 27.1 94 0.8 ESE 20 24 11 13 1009.0 - 0.0
29/07:30am 27.7 - 27.9 - - ESE 19 24 10 13 1008.7 - 0.0
29/07:00am 27.7 33.1 27.7 100 0.0 ESE 15 20 8 11 1008.3 - 0.0
29/06:30am 27.9 34.1 27.7 99 0.1 SE 11 13 6 7 1007.7 - 0.0
29/06:00am 27.3 - 27.8 - - SSE 15 19 8 10 1007.2 1007.1 0.0
29/05:30am 27.3 32.4 27.3 100 0.0 S 15 19 8 10 1006.7 - 0.0
29/05:00am 27.8 32.3 27.8 100 0.0 SSW 20 26 11 14 1005.9 - 0.0
29/04:30am 27.6 32.2 27.6 100 0.0 SW 19 28 10 15 1005.3 - 0.0
29/04:00am 27.4 30.7 27.1 98 0.2 SW 24 30 13 16 1005.1 - 0.0
29/03:30am 27.9 30.0 25.9 89 1.4 SSW 26 30 14 16 1004.7 - 0.0
29/03:00am 27.8 31.9 26.9 95 0.6 SSW 19 20 10 11 1004.5 1004.4 0.0
29/02:30am 27.4 32.6 27.4 100 0.0 S 15 20 8 11 1004.4 - 0.0
29/02:00am 26.6 - 27.1 - - SSW 20 26 11 14 1004.5 - 0.0
29/01:30am 26.7 - 27.5 - - SSW 33 39 18 21 1005.3 - 0.0
29/01:00am 27.1 - 27.6 - - SSW 33 39 18 21 1005.8 - 0.0
29/12:30am 26.9 - 28.1 - - SSW 32 37 17 20 1006.1 - 0.0
29/12:00am 26.5 - 27.5 - - S 35 43 19 23 1007.1 1007.0 0.0
 
Date/Time
WST
Temp
°C
App
Temp
°C
Dew
Point
Rel
Hum
%
Delta-T
°C
Wind Press
QNH
hPa
Press
MSL
hPa
Rain
since 9 am
mm
Dir
 
Spd
km/h
Gust
km/h
Spd
kts
Gust
kts
28/11:30pm 28.3 32.4 28.3 100 0.0 S 24 37 13 20 1007.3 - 0.0
28/11:00pm 28.0 - 28.2 - - S 20 26 11 14 1007.3 - 0.0
28/10:30pm 28.0 - 28.7 - - S 28 35 15 19 1007.5 - 0.0
28/10:00pm 29.1 - 30.3 - - WSW 19 20 10 11 1007.4 - 0.0
28/09:30pm 29.3 - 30.5 - - W 20 24 11 13 1007.7 - 0.0
28/09:00pm 29.2 - 30.4 - - W 20 26 11 14 1007.2 1007.1 0.0
28/08:30pm 29.1 - 30.3 - - W 19 22 10 12 1006.4 - 0.0
28/08:00pm 29.2 - 30.4 - - W 22 26 12 14 1006.6 - 0.0
28/07:30pm 29.1 - 30.1 - - W 20 24 11 13 1006.3 - 0.0
28/07:00pm 29.1 - 30.3 - - W 22 28 12 15 1005.8 - 0.0
28/06:30pm 29.2 - 30.4 - - W 24 30 13 16 1005.7 - 0.0
28/06:00pm 29.5 - 30.5 - - W 22 28 12 15 1004.9 1004.8 0.0
28/05:30pm 30.1 - 30.8 - - W 26 28 14 15 1004.3 - 0.0
28/05:00pm 30.4 36.2 30.4 100 0.0 WNW 24 32 13 17 1004.4 - 0.0
28/04:30pm 31.0 36.5 30.5 97 0.4 W 26 30 14 16 1004.1 - 0.0
28/04:00pm 31.1 37.9 30.7 98 0.3 W 20 24 11 13 1004.1 - 0.0
28/03:30pm 31.4 37.8 30.7 96 0.5 W 22 28 12 15 1003.4 - 0.0
28/03:00pm 31.6 38.2 30.5 94 0.8 W 20 26 11 14 1003.6 1003.5 0.0
28/02:30pm 31.6 38.4 30.7 95 0.7 W 20 24 11 13 1003.9 - 0.0
28/02:00pm 31.2 38.4 30.5 96 0.5 WNW 17 20 9 11 1004.5 - 0.0
28/01:30pm 31.0 37.9 30.1 95 0.7 WNW 17 20 9 11 1005.0 - 0.0
28/01:00pm 30.9 38.1 30.0 95 0.7 W 15 19 8 10 1005.4 - 0.0
28/12:30pm 30.9 37.4 29.6 93 1.0 W 17 20 9 11 1005.4 - 0.0
28/12:00pm 30.4 37.2 29.5 95 0.7 W 15 17 8 9 1005.7 1005.6 0.0
28/11:30am 30.8 37.7 29.7 94 0.8 W 15 19 8 10 1006.1 - 0.0
28/11:00am 30.2 37.7 29.5 96 0.5 W 11 17 6 9 1006.4 - 0.0
28/10:30am 29.9 37.4 29.5 98 0.3 W 11 15 6 8 1007.0 - 0.0
28/10:00am 29.4 37.6 29.4 100 0.0 SW 7 11 4 6 1007.3 - 0.0
28/09:30am 29.2 36.9 29.2 100 0.0 S 9 13 5 7 1007.5 - 0.0
28/09:00am 29.3 - 29.6 - - S 11 13 6 7 1007.4 1007.3 1.2
28/08:30am 29.0 36.1 29.0 100 0.0 S 11 15 6 8 1007.4 - 1.2
28/08:00am 29.1 - 29.4 - - SSE 9 11 5 6 1007.3 - 1.2
28/07:30am 28.6 - 29.1 - - SSE 9 13 5 7 1007.0 - 1.0
28/07:00am 28.4 - 29.1 - - S 7 11 4 6 1006.9 - 1.0
28/06:30am 28.1 - 29.3 - - SSE 9 11 5 6 1006.6 - 1.0
28/06:00am 27.3 - 28.5 - - SSE 7 9 4 5 1006.5 1006.4 1.0
28/05:30am 26.5 - 27.7 - - SSE 9 11 5 6 1006.3 - 1.0
28/05:00am 26.6 - 27.8 - - CALM 0 0 0 0 1006.1 - 1.0
28/04:30am 26.7 - 27.9 - - CALM 0 0 0 0 1005.8 - 1.0
28/04:00am 26.7 - 27.9 - - CALM 0 0 0 0 1005.5 - 1.0
28/03:30am 26.7 - 27.9 - - ESE 7 9 4 5 1005.4 - 1.0
28/03:00am 26.8 - 28.0 - - E 7 9 4 5 1005.3 1005.2 1.0
28/02:30am 27.0 - 28.2 - - E 9 11 5 6 1005.2 - 1.0
28/02:00am 27.0 - 28.2 - - ESE 11 15 6 8 1005.2 - 1.0
28/01:30am 27.1 - 28.3 - - E 11 13 6 7 1005.6 - 1.0
28/01:00am 27.2 - 28.4 - - E 15 19 8 10 1005.8 - 1.0
28/12:30am 27.1 - 28.3 - - ESE 11 15 6 8 1005.8 - 1.0
28/12:00am 27.2 - 28.4 - - ESE 13 17 7 9 1006.0 1005.9 1.0
 
Date/Time
WST
Temp
°C
App
Temp
°C
Dew
Point
Rel
Hum
%
Delta-T
°C
Wind Press
QNH
hPa
Press
MSL
hPa
Rain
since 9 am
mm
Dir
 
Spd
km/h
Gust
km/h
Spd
kts
Gust
kts
27/11:30pm 27.2 - 28.4 - - ESE 13 17 7 9 1006.5 - 1.0
27/11:00pm 26.9 - 28.1 - - E 15 17 8 9 1007.0 - 1.0
27/10:30pm 26.8 - 28.0 - - ESE 17 20 9 11 1007.5 - 1.0
27/10:00pm 26.8 - 28.0 - - ESE 19 22 10 12 1007.6 - 1.0
27/09:30pm 26.8 - 28.0 - - SE 19 22 10 12 1007.7 - 1.0
27/09:00pm 26.9 - 28.1 - - SE 20 26 11 14 1007.6 1007.5 1.0
27/08:30pm 26.5 - 27.7 - - ESE 20 26 11 14 1007.6 - 1.0
27/08:00pm 26.0 - 27.1 - - ESE 19 22 10 12 1008.3 - 1.0
27/07:30pm 25.2 - 26.3 - - SE 32 44 17 24 1008.5 - 1.0
27/07:18pm 24.8 - 25.9 - - SE 44 57 24 31 1008.2 - 1.0
27/07:00pm 25.5 - 26.6 - - SSE 44 54 24 29 1008.0 - 0.8
27/06:46pm 26.6 - 27.1 - - SSE 37 52 20 28 1008.2 - 0.0
27/06:30pm 29.6 - 30.8 - - WSW 28 33 15 18 1007.5 - 0.0
27/06:00pm 29.5 - 30.5 - - W 30 35 16 19 1006.8 1006.7 0.0
27/05:30pm 29.7 - 30.7 - - W 30 37 16 20 1006.2 - 0.0
27/05:00pm 29.7 - 30.7 - - W 33 39 18 21 1005.0 - 0.0
27/04:30pm 30.2 - 30.7 - - W 30 33 16 18 1004.8 - 0.0
27/04:00pm 31.0 36.5 31.0 100 0.0 W 28 32 15 17 1004.5 - 0.0

Other Formats:

Comma delimited format used in spreadsheet applications
http://www.bom.gov.au/fwo/IDW60801/IDW60801.94102.axf

JavaScript Object Notation format (JSON) in row-major order
http://www.bom.gov.au/fwo/IDW60801/IDW60801.94102.json